CSC6581 ZYHB-ZBSJ
Flight info
| Callsign | CSC6581 |
|---|---|
| Flight time | N/A |
| Altitude | 36000 |
| Route | LEGAG W204 RUSBO G212 VYK B215 IDGIS |
| Aircraft | A321/M-SDE3FGHIRWY/LB1 |
Departure
| Time | 2026-04-30 14:20 |
|---|---|
| Airport | Harbin Taiping International Airport (ZYHB) |
Arrival
| Time | N/A |
|---|---|
| Airport | Shijiazhuang Zhengding International Airport (ZBSJ) |
| Time | Latitude | Longitude | Altitude | Speed | Heading |
|---|---|---|---|---|---|
| 2026-04-30 13:52 | 45.61580 | 126.23420 | 463 ft | 0 kts | 309° |
| 2026-04-30 14:08 | 45.61578 | 126.23424 | 463 ft | 2 kts | 309° |
| 2026-04-30 14:08 | 45.61566 | 126.23444 | 462 ft | 3 kts | 309° |
| 2026-04-30 14:08 | 45.61543 | 126.23485 | 464 ft | 3 kts | 287° |
| 2026-04-30 14:09 | 45.61542 | 126.23507 | 464 ft | 3 kts | 233° |
| 2026-04-30 14:09 | 45.61556 | 126.23525 | 460 ft | 3 kts | 210° |
| 2026-04-30 14:09 | 45.61575 | 126.23542 | 465 ft | 0 kts | 219° |
| 2026-04-30 14:12 | 45.61571 | 126.23537 | 465 ft | 2 kts | 219° |
| 2026-04-30 14:12 | 45.61546 | 126.23508 | 465 ft | 7 kts | 219° |
| 2026-04-30 14:12 | 45.61497 | 126.23451 | 464 ft | 11 kts | 219° |
| 2026-04-30 14:12 | 45.61451 | 126.23398 | 466 ft | 14 kts | 220° |
| 2026-04-30 14:13 | 45.61344 | 126.23271 | 464 ft | 16 kts | 219° |
| 2026-04-30 14:13 | 45.61259 | 126.23174 | 465 ft | 11 kts | 218° |
| 2026-04-30 14:13 | 45.61207 | 126.23153 | 465 ft | 8 kts | 155° |
| 2026-04-30 14:13 | 45.61169 | 126.23214 | 466 ft | 9 kts | 129° |
| 2026-04-30 14:14 | 45.61122 | 126.23264 | 464 ft | 9 kts | 176° |
| 2026-04-30 14:14 | 45.61069 | 126.23215 | 466 ft | 11 kts | 220° |
| 2026-04-30 14:14 | 45.61000 | 126.23132 | 467 ft | 15 kts | 218° |
| 2026-04-30 14:14 | 45.60908 | 126.23024 | 467 ft | 19 kts | 220° |
| 2026-04-30 14:15 | 45.60831 | 126.22934 | 467 ft | 8 kts | 219° |
| 2026-04-30 14:15 | 45.60782 | 126.22894 | 468 ft | 8 kts | 177° |
| 2026-04-30 14:15 | 45.60737 | 126.22949 | 466 ft | 10 kts | 130° |
| 2026-04-30 14:15 | 45.60680 | 126.23045 | 466 ft | 16 kts | 130° |
| 2026-04-30 14:16 | 45.60594 | 126.23194 | 470 ft | 21 kts | 129° |
| 2026-04-30 14:16 | 45.60498 | 126.23355 | 471 ft | 21 kts | 130° |
| 2026-04-30 14:16 | 45.60403 | 126.23517 | 469 ft | 19 kts | 130° |
| 2026-04-30 14:16 | 45.60329 | 126.23645 | 471 ft | 11 kts | 130° |
| 2026-04-30 14:17 | 45.60311 | 126.23675 | 472 ft | 0 kts | 130° |
| 2026-04-30 14:18 | 45.60310 | 126.23676 | 472 ft | 0 kts | 130° |
| 2026-04-30 14:18 | 45.60300 | 126.23693 | 472 ft | 5 kts | 130° |
| 2026-04-30 14:18 | 45.60222 | 126.23785 | 473 ft | 8 kts | 191° |
| 2026-04-30 14:19 | 45.60193 | 126.23760 | 472 ft | 0 kts | 218° |
| 2026-04-30 14:19 | 45.60016 | 126.23553 | 474 ft | 73 kts | 219° |
| 2026-04-30 14:19 | 45.59434 | 126.22874 | 480 ft | 140 kts | 219° |
| 2026-04-30 14:20 | 45.58562 | 126.21835 | 689 ft | 172 kts | 221° |
| 2026-04-30 14:20 | 45.57666 | 126.20765 | 1440 ft | 170 kts | 226° |
| 2026-04-30 14:20 | 45.56078 | 126.18861 | 2243 ft | 191 kts | 224° |
| 2026-04-30 14:21 | 45.54612 | 126.17152 | 2541 ft | 219 kts | 223° |
| 2026-04-30 14:21 | 45.53370 | 126.15719 | 2699 ft | 239 kts | 222° |
| 2026-04-30 14:21 | 45.50527 | 126.12428 | 3417 ft | 278 kts | 221° |
| 2026-04-30 14:22 | 45.49013 | 126.10679 | 4219 ft | 282 kts | 221° |
| 2026-04-30 14:22 | 45.46460 | 126.07723 | 5730 ft | 282 kts | 220° |
| 2026-04-30 14:22 | 45.44463 | 126.05412 | 6958 ft | 278 kts | 220° |
| 2026-04-30 14:23 | 45.41492 | 126.01969 | 7652 ft | 275 kts | 221° |
| 2026-04-30 14:23 | 45.39055 | 125.99149 | 9242 ft | 269 kts | 222° |
| 2026-04-30 14:24 | 45.36085 | 125.95703 | 10329 ft | 294 kts | 223° |
| 2026-04-30 14:24 | 45.34437 | 125.93777 | 10485 ft | 318 kts | 222° |
| 2026-04-30 14:25 | 45.30858 | 125.89619 | 11368 ft | 340 kts | 222° |
| 2026-04-30 14:25 | 45.27137 | 125.85342 | 12729 ft | 348 kts | 221° |
| 2026-04-30 14:26 | 45.23387 | 125.80899 | 14052 ft | 355 kts | 224° |
| 2026-04-30 14:26 | 45.21520 | 125.78594 | 14676 ft | 358 kts | 224° |
| 2026-04-30 14:26 | 45.17735 | 125.73901 | 15958 ft | 364 kts | 224° |
| 2026-04-30 14:27 | 45.15811 | 125.71537 | 16569 ft | 369 kts | 224° |
| 2026-04-30 14:27 | 45.13858 | 125.69154 | 17208 ft | 372 kts | 224° |
| 2026-04-30 14:27 | 45.11963 | 125.66640 | 17812 ft | 374 kts | 231° |
| 2026-04-30 14:28 | 45.09292 | 125.60373 | 18934 ft | 375 kts | 251° |
| 2026-04-30 14:28 | 45.08605 | 125.56861 | 19495 ft | 376 kts | 257° |
| 2026-04-30 14:28 | 45.08014 | 125.53246 | 20068 ft | 378 kts | 257° |
| 2026-04-30 14:28 | 45.07414 | 125.49615 | 20640 ft | 380 kts | 257° |
| 2026-04-30 14:29 | 45.06193 | 125.42299 | 21710 ft | 384 kts | 257° |
| 2026-04-30 14:29 | 45.04944 | 125.34886 | 22659 ft | 391 kts | 257° |
| 2026-04-30 14:30 | 45.02462 | 125.23822 | 23978 ft | 401 kts | 243° |
| 2026-04-30 14:31 | 44.99282 | 125.17244 | 24775 ft | 407 kts | 237° |
| 2026-04-30 14:31 | 44.95997 | 125.10657 | 25569 ft | 412 kts | 237° |
| 2026-04-30 14:31 | 44.94342 | 125.07334 | 25944 ft | 414 kts | 237° |
| 2026-04-30 14:32 | 44.91008 | 125.00638 | 26634 ft | 420 kts | 237° |
| 2026-04-30 14:32 | 44.89326 | 124.97260 | 26994 ft | 422 kts | 237° |
| 2026-04-30 14:32 | 44.87634 | 124.93870 | 27357 ft | 424 kts | 237° |
| 2026-04-30 14:33 | 44.85925 | 124.90458 | 27731 ft | 427 kts | 237° |
| 2026-04-30 14:33 | 44.82480 | 124.83592 | 28468 ft | 431 kts | 237° |
| 2026-04-30 14:33 | 44.80775 | 124.80199 | 28961 ft | 429 kts | 237° |
| 2026-04-30 14:34 | 44.79043 | 124.76766 | 29395 ft | 430 kts | 237° |
| 2026-04-30 14:34 | 44.77311 | 124.73339 | 29850 ft | 430 kts | 237° |
| 2026-04-30 14:34 | 44.75580 | 124.69917 | 30269 ft | 429 kts | 237° |
| 2026-04-30 14:34 | 44.73851 | 124.66505 | 30680 ft | 428 kts | 237° |
| 2026-04-30 14:35 | 44.70391 | 124.59693 | 31505 ft | 426 kts | 237° |
| 2026-04-30 14:35 | 44.68668 | 124.56304 | 31915 ft | 426 kts | 237° |
| 2026-04-30 14:35 | 44.66949 | 124.52920 | 32298 ft | 425 kts | 237° |
| 2026-04-30 14:36 | 44.65234 | 124.49547 | 32684 ft | 425 kts | 237° |
| 2026-04-30 14:36 | 44.63520 | 124.46179 | 33099 ft | 424 kts | 237° |
| 2026-04-30 14:36 | 44.61805 | 124.42818 | 33505 ft | 423 kts | 237° |
| 2026-04-30 14:36 | 44.60113 | 124.39456 | 33894 ft | 421 kts | 240° |
| 2026-04-30 14:37 | 44.58729 | 124.35861 | 34213 ft | 417 kts | 249° |
| 2026-04-30 14:37 | 44.57790 | 124.32038 | 34514 ft | 414 kts | 258° |
| 2026-04-30 14:37 | 44.57302 | 124.28068 | 34812 ft | 413 kts | 265° |
| 2026-04-30 14:37 | 44.56999 | 124.24062 | 35102 ft | 413 kts | 264° |
| 2026-04-30 14:38 | 44.56688 | 124.20039 | 35397 ft | 413 kts | 264° |
| 2026-04-30 14:38 | 44.56312 | 124.16045 | 35678 ft | 414 kts | 259° |
| 2026-04-30 14:38 | 44.55509 | 124.12163 | 35894 ft | 417 kts | 250° |
| 2026-04-30 14:39 | 44.52538 | 124.05115 | 35959 ft | 428 kts | 236° |
| 2026-04-30 14:39 | 44.48993 | 123.98364 | 35958 ft | 435 kts | 236° |
| 2026-04-30 14:40 | 44.43617 | 123.88079 | 35941 ft | 436 kts | 237° |
| 2026-04-30 14:40 | 44.40062 | 123.81158 | 35962 ft | 439 kts | 237° |
| 2026-04-30 14:41 | 44.36487 | 123.74181 | 35969 ft | 439 kts | 237° |
| 2026-04-30 14:41 | 44.32934 | 123.67287 | 35981 ft | 440 kts | 237° |
| 2026-04-30 14:42 | 44.29341 | 123.60371 | 35971 ft | 440 kts | 237° |
| 2026-04-30 14:42 | 44.25739 | 123.53448 | 35980 ft | 441 kts | 237° |
| 2026-04-30 14:43 | 44.22129 | 123.46508 | 35994 ft | 441 kts | 237° |
| 2026-04-30 14:43 | 44.18518 | 123.39588 | 35995 ft | 441 kts | 237° |
| 2026-04-30 14:44 | 44.14898 | 123.32678 | 35998 ft | 441 kts | 237° |
| 2026-04-30 14:44 | 44.11277 | 123.25771 | 35997 ft | 441 kts | 237° |
| 2026-04-30 14:45 | 44.07657 | 123.18885 | 35995 ft | 441 kts | 237° |
| 2026-04-30 14:45 | 44.04028 | 123.12007 | 36004 ft | 441 kts | 236° |
| 2026-04-30 14:46 | 44.00399 | 123.05149 | 35983 ft | 441 kts | 236° |
| 2026-04-30 14:46 | 43.96757 | 122.98269 | 35986 ft | 442 kts | 236° |
| 2026-04-30 14:47 | 43.93113 | 122.91398 | 35994 ft | 443 kts | 237° |
| 2026-04-30 14:47 | 43.89521 | 122.84457 | 36000 ft | 443 kts | 237° |
| 2026-04-30 14:48 | 43.85996 | 122.77512 | 36002 ft | 443 kts | 238° |
| 2026-04-30 14:48 | 43.82437 | 122.70532 | 36008 ft | 444 kts | 237° |
| 2026-04-30 14:49 | 43.78854 | 122.63578 | 36014 ft | 444 kts | 237° |
| 2026-04-30 14:49 | 43.75261 | 122.56634 | 36001 ft | 444 kts | 237° |
| 2026-04-30 14:50 | 43.69846 | 122.46223 | 36007 ft | 444 kts | 237° |
| 2026-04-30 14:51 | 43.64439 | 122.35827 | 36015 ft | 444 kts | 237° |
| 2026-04-30 14:52 | 43.59015 | 122.25445 | 36013 ft | 445 kts | 237° |
| 2026-04-30 14:52 | 43.53595 | 122.15048 | 36019 ft | 444 kts | 237° |
| 2026-04-30 14:53 | 43.48229 | 122.04641 | 36028 ft | 444 kts | 238° |
| 2026-04-30 14:54 | 43.41056 | 121.90848 | 36031 ft | 443 kts | 238° |
| 2026-04-30 14:55 | 43.35694 | 121.80570 | 36011 ft | 443 kts | 238° |
| 2026-04-30 14:56 | 43.28486 | 121.66818 | 36026 ft | 444 kts | 237° |
| 2026-04-30 14:57 | 43.23052 | 121.56499 | 36039 ft | 444 kts | 238° |
| 2026-04-30 14:58 | 43.15811 | 121.42770 | 36032 ft | 445 kts | 237° |
| 2026-04-30 14:58 | 43.10354 | 121.32479 | 36034 ft | 445 kts | 237° |
| 2026-04-30 15:00 | 43.01216 | 121.15338 | 36036 ft | 447 kts | 237° |
| 2026-04-30 15:01 | 42.93895 | 121.01679 | 36041 ft | 447 kts | 237° |
| 2026-04-30 15:01 | 42.88387 | 120.91398 | 36050 ft | 447 kts | 238° |
| 2026-04-30 15:02 | 42.84674 | 120.84523 | 36053 ft | 447 kts | 238° |
| 2026-04-30 15:03 | 42.75490 | 120.67561 | 36040 ft | 446 kts | 238° |
| 2026-04-30 15:04 | 42.66261 | 120.50628 | 36033 ft | 445 kts | 238° |
| 2026-04-30 15:06 | 42.57009 | 120.33731 | 36042 ft | 446 kts | 238° |
| 2026-04-30 15:07 | 42.49610 | 120.20281 | 36049 ft | 447 kts | 238° |
| 2026-04-30 15:08 | 42.42777 | 120.07930 | 36040 ft | 447 kts | 238° |
| 2026-04-30 15:09 | 42.33443 | 119.91127 | 36049 ft | 447 kts | 238° |
| 2026-04-30 15:10 | 42.25966 | 119.77710 | 36032 ft | 447 kts | 237° |
| 2026-04-30 15:11 | 42.14697 | 119.57662 | 36044 ft | 447 kts | 237° |
| 2026-04-30 15:13 | 42.05310 | 119.41019 | 36049 ft | 448 kts | 237° |
| 2026-04-30 15:14 | 41.92044 | 119.17713 | 36049 ft | 449 kts | 237° |
| 2026-04-30 15:17 | 41.74905 | 118.87789 | 36046 ft | 450 kts | 237° |
| 2026-04-30 15:19 | 41.59583 | 118.61325 | 36066 ft | 449 kts | 238° |